Time;durP1;ratioP1;P1;durP2;ratioP2;P2;SDS_P1;SDS_P2;PMS_P1;PMS_P2;Temp;Humidity;BMP_temperature;BMP_pressure;BME280_temperature;BME280_humidity;BME280_pressure;Samples;Min_cycle;Max_cycle;Signal;HPM_P1;HPM_P2
2021/09/18 00:00:19;;;;;;;0.45;0.40;;;13.10;99.90;;;;;;5014133;28;20030;-74
2021/09/18 00:02:45;;;;;;;0.55;0.55;;;13.10;99.90;;;;;;5014958;28;20396;-74
2021/09/18 00:05:11;;;;;;;0.73;0.73;;;13.10;99.90;;;;;;5015037;28;20480;-75
2021/09/18 00:07:37;;;;;;;1.55;0.75;;;12.80;99.90;;;;;;5015210;28;20049;-75
2021/09/18 00:10:04;;;;;;;0.10;0.10;;;12.70;99.90;;;;;;4997542;28;20388;-75
2021/09/18 00:12:30;;;;;;;0.10;0.10;;;12.70;99.90;;;;;;5014811;28;20026;-75
2021/09/18 00:14:56;;;;;;;0.10;0.10;;;12.90;99.90;;;;;;5014832;28;20026;-74
2021/09/18 00:17:22;;;;;;;0.20;0.20;;;13.10;99.90;;;;;;4997424;28;20556;-75
2021/09/18 00:19:48;;;;;;;0.13;0.13;;;13.20;99.90;;;;;;5014960;28;20528;-75
2021/09/18 00:22:14;;;;;;;0.13;0.13;;;13.40;99.90;;;;;;5014843;28;20064;-75
2021/09/18 00:24:39;;;;;;;0.10;0.10;;;13.50;99.90;;;;;;5013365;28;20021;-75
2021/09/18 00:27:05;;;;;;;1.05;1.05;;;13.70;99.90;;;;;;5013512;28;20022;-74
2021/09/18 00:29:31;;;;;;;0.20;0.20;;;13.70;99.90;;;;;;5013644;28;20436;-75
2021/09/18 00:31:56;;;;;;;0.20;0.20;;;13.60;99.90;;;;;;5013604;28;20034;-74
2021/09/18 00:34:22;;;;;;;0.13;0.13;;;13.60;99.90;;;;;;5014635;28;20533;-74
2021/09/18 00:36:48;;;;;;;0.10;0.10;;;13.50;99.90;;;;;;5014375;28;20029;-74
2021/09/18 00:39:14;;;;;;;0.15;0.15;;;13.60;99.90;;;;;;5013476;28;20504;-75
2021/09/18 00:41:40;;;;;;;0.10;0.10;;;13.70;99.90;;;;;;5013479;28;20099;-75
2021/09/18 00:44:06;;;;;;;0.10;0.10;;;13.50;99.90;;;;;;5014642;28;20095;-75
2021/09/18 00:46:32;;;;;;;0.13;0.13;;;13.60;99.90;;;;;;5014240;28;20044;-75
2021/09/18 00:48:57;;;;;;;0.45;0.45;;;13.50;99.90;;;;;;5014402;28;20030;-75
2021/09/18 00:51:23;;;;;;;0.10;0.10;;;13.50;99.90;;;;;;5014354;28;20040;-75
2021/09/18 00:53:49;;;;;;;0.10;0.10;;;13.50;99.90;;;;;;5014388;28;20083;-75
2021/09/18 00:56:17;;;;;;;0.10;0.10;;;13.50;99.90;;;;;;5012827;28;20022;-75
2021/09/18 00:58:43;;;;;;;0.10;0.10;;;13.60;99.90;;;;;;4996747;28;20026;-74
2021/09/18 01:01:09;;;;;;;0.10;0.10;;;13.50;99.90;;;;;;5014088;28;20030;-75
2021/09/18 01:03:35;;;;;;;0.17;0.17;;;13.40;99.90;;;;;;5012949;28;20030;-75
2021/09/18 01:06:00;;;;;;;0.32;0.32;;;13.30;99.90;;;;;;5012781;28;20562;-75
2021/09/18 01:08:28;;;;;;;0.10;0.10;;;13.20;99.90;;;;;;5014240;28;20018;-75
2021/09/18 01:10:54;;;;;;;0.20;0.20;;;13.30;99.90;;;;;;5014090;28;20367;-74
2021/09/18 01:13:20;;;;;;;0.30;0.30;;;13.20;99.90;;;;;;5012533;28;20084;-75
2021/09/18 01:15:48;;;;;;;0.10;0.10;;;13.00;99.90;;;;;;5013839;28;20025;-75
2021/09/18 01:18:16;;;;;;;0.20;0.20;;;12.80;99.90;;;;;;5013802;28;20480;-75
2021/09/18 01:20:45;;;;;;;0.10;0.10;;;13.00;99.90;;;;;;5012642;28;20029;-74
2021/09/18 01:23:15;;;;;;;0.68;0.68;;;13.10;99.90;;;;;;5012597;28;20075;-75
2021/09/18 01:25:41;;;;;;;0.20;0.20;;;12.70;99.90;;;;;;5012302;28;20026;-75
2021/09/18 01:28:07;;;;;;;0.17;0.17;;;12.60;99.90;;;;;;5012574;28;20609;-75
2021/09/18 01:30:35;;;;;;;0.10;0.10;;;12.60;99.90;;;;;;5013737;28;20017;-75
2021/09/18 01:33:04;;;;;;;0.20;0.20;;;12.70;99.90;;;;;;5012336;28;20030;-75
2021/09/18 01:35:29;;;;;;;0.20;0.20;;;12.70;99.90;;;;;;5012163;28;20040;-75
2021/09/18 01:37:55;;;;;;;0.15;0.15;;;12.70;99.90;;;;;;5013459;28;20022;-75
2021/09/18 01:40:28;;;;;;;0.15;0.15;;;12.80;99.90;;;;;;5013627;28;20026;-75
2021/09/18 01:42:56;;;;;;;0.13;0.13;;;12.80;99.90;;;;;;5012248;28;20026;-75
2021/09/18 01:45:22;;;;;;;0.20;0.20;;;12.80;99.90;;;;;;5012063;28;20114;-75
2021/09/18 01:47:51;;;;;;;0.47;0.47;;;12.70;99.90;;;;;;5012203;28;20034;-75
2021/09/18 01:50:21;;;;;;;0.20;0.20;;;12.90;99.90;;;;;;5012004;28;20026;-75
2021/09/18 01:52:49;;;;;;;0.20;0.20;;;12.90;99.90;;;;;;5012069;28;20034;-75
2021/09/18 01:55:16;;;;;;;0.32;0.32;;;12.80;99.90;;;;;;5013102;28;20026;-75
2021/09/18 01:57:47;;;;;;;0.10;0.10;;;12.80;99.90;;;;;;5013019;28;20028;-74
2021/09/18 02:00:14;;;;;;;0.80;0.80;;;12.70;99.90;;;;;;5013198;28;20030;-74
2021/09/18 02:02:41;;;;;;;0.10;0.10;;;12.60;99.90;;;;;;5011783;28;20524;-74
2021/09/18 02:05:08;;;;;;;0.20;0.20;;;12.60;99.90;;;;;;5013009;28;20024;-75
2021/09/18 02:07:34;;;;;;;0.30;0.30;;;12.60;99.90;;;;;;5012963;28;20056;-75
2021/09/18 02:09:59;;;;;;;0.15;0.15;;;12.70;99.90;;;;;;5011789;28;20038;-74
2021/09/18 02:12:25;;;;;;;2.10;0.30;;;12.70;99.90;;;;;;5012964;28;20034;-75
2021/09/18 02:14:51;;;;;;;0.10;0.10;;;12.70;99.90;;;;;;5012820;28;20381;-75
2021/09/18 02:17:17;;;;;;;0.20;0.20;;;12.70;99.90;;;;;;5011532;28;20441;-75
2021/09/18 02:19:43;;;;;;;0.20;0.20;;;12.80;99.90;;;;;;5011594;28;20033;-74
2021/09/18 02:22:09;;;;;;;0.13;0.13;;;12.70;99.90;;;;;;5012643;28;20484;-75
2021/09/18 02:24:34;;;;;;;0.10;0.10;;;12.80;99.90;;;;;;4995030;28;20111;-75
2021/09/18 02:27:00;;;;;;;0.13;0.13;;;12.90;99.90;;;;;;5012616;28;20160;-75
2021/09/18 02:29:26;;;;;;;0.10;0.10;;;13.00;99.90;;;;;;5012785;28;20076;-75
2021/09/18 02:31:52;;;;;;;0.30;0.30;;;12.90;99.90;;;;;;5011382;28;20028;-74
2021/09/18 02:34:17;;;;;;;0.10;0.10;;;12.90;99.90;;;;;;4994983;28;20026;-74
2021/09/18 02:36:43;;;;;;;0.20;0.20;;;12.70;99.90;;;;;;5012351;28;20486;-75
2021/09/18 02:39:09;;;;;;;0.10;0.10;;;12.60;99.90;;;;;;5011366;28;20057;-75
2021/09/18 02:41:34;;;;;;;0.08;0.08;;;12.60;99.90;;;;;;5011205;28;20656;-75
2021/09/18 02:44:00;;;;;;;0.13;0.13;;;12.80;99.90;;;;;;5012618;28;20030;-75
2021/09/18 02:46:26;;;;;;;0.20;0.20;;;12.90;99.90;;;;;;5010860;28;20026;-75
2021/09/18 02:48:52;;;;;;;0.20;0.20;;;12.90;99.90;;;;;;5012522;28;20068;-75
2021/09/18 02:51:18;;;;;;;0.10;0.10;;;12.80;99.90;;;;;;5011132;28;20466;-75
2021/09/18 02:53:44;;;;;;;0.20;0.20;;;12.80;99.90;;;;;;5012321;28;20105;-75
2021/09/18 02:56:10;;;;;;;0.20;0.20;;;12.80;99.90;;;;;;5012154;28;20030;-75
2021/09/18 02:58:36;;;;;;;0.10;0.10;;;12.80;99.90;;;;;;5011084;28;20033;-74
2021/09/18 03:01:02;;;;;;;0.10;0.10;;;12.80;99.90;;;;;;5012198;28;20033;-75
2021/09/18 03:03:27;;;;;;;0.32;0.32;;;12.80;99.90;;;;;;5010991;28;20052;-74
2021/09/18 03:05:54;;;;;;;0.15;0.15;;;12.80;99.90;;;;;;5011629;28;20022;-75
2021/09/18 03:08:20;;;;;;;0.32;0.32;;;12.80;99.90;;;;;;5010976;28;20029;-75
2021/09/18 03:10:46;;;;;;;0.10;0.10;;;12.60;99.90;;;;;;5011062;28;20021;-75
2021/09/18 03:13:12;;;;;;;0.40;0.40;;;12.40;99.90;;;;;;4994552;28;20432;-74
2021/09/18 03:15:38;;;;;;;0.13;0.13;;;12.40;99.90;;;;;;5010668;28;20026;-74
2021/09/18 03:18:03;;;;;;;0.20;0.20;;;12.50;99.90;;;;;;5011966;28;20034;-75
2021/09/18 03:20:29;;;;;;;0.20;0.20;;;12.40;99.90;;;;;;5012099;28;20080;-75
2021/09/18 03:22:55;;;;;;;0.47;0.47;;;12.40;99.90;;;;;;5011936;28;20386;-74
2021/09/18 03:25:21;;;;;;;0.17;0.17;;;12.50;99.90;;;;;;5010640;28;20048;-75
2021/09/18 03:27:47;;;;;;;0.10;0.10;;;12.60;99.90;;;;;;5010703;28;20026;-75
2021/09/18 03:30:13;;;;;;;0.10;0.10;;;12.70;99.90;;;;;;5010822;28;20018;-74
2021/09/18 03:32:39;;;;;;;3.20;0.68;;;12.70;99.90;;;;;;5011946;28;20025;-75
2021/09/18 03:35:05;;;;;;;0.10;0.10;;;12.70;99.90;;;;;;5010578;28;20026;-74
2021/09/18 03:37:34;;;;;;;0.20;0.20;;;12.70;99.90;;;;;;5010655;28;20033;-75
2021/09/18 03:40:05;;;;;;;0.10;0.10;;;12.80;99.90;;;;;;5011951;28;20504;-75
2021/09/18 03:42:30;;;;;;;0.10;0.10;;;12.80;99.90;;;;;;5010575;28;20030;-75
2021/09/18 03:44:56;;;;;;;0.15;0.15;;;13.00;99.90;;;;;;5011704;28;20156;-75
2021/09/18 03:47:22;;;;;;;0.10;0.10;;;13.10;99.90;;;;;;5010402;28;20022;-75
2021/09/18 03:49:48;;;;;;;0.10;0.10;;;13.00;99.90;;;;;;5011762;28;20053;-75
2021/09/18 03:52:14;;;;;;;1.13;1.05;;;13.10;99.90;;;;;;5011686;28;20030;-75
2021/09/18 03:54:39;;;;;;;0.20;0.20;;;13.10;99.90;;;;;;5011697;28;20022;-75
2021/09/18 03:57:05;;;;;;;0.10;0.10;;;13.20;99.90;;;;;;5010477;28;20061;-74
2021/09/18 03:59:31;;;;;;;0.10;0.10;;;13.30;99.90;;;;;;5010461;28;20077;-75
2021/09/18 04:01:56;;;;;;;0.35;0.35;;;13.50;99.90;;;;;;5011703;28;20410;-75
2021/09/18 04:04:22;;;;;;;0.15;0.15;;;13.40;99.90;;;;;;5010260;28;20105;-74
2021/09/18 04:06:48;;;;;;;0.10;0.10;;;13.30;99.90;;;;;;5011519;28;20021;-75
2021/09/18 04:09:15;;;;;;;0.20;0.20;;;13.20;99.90;;;;;;5010366;28;20113;-75
2021/09/18 04:11:40;;;;;;;0.32;0.32;;;13.10;99.90;;;;;;5010534;28;20058;-75
2021/09/18 04:14:06;;;;;;;0.70;0.40;;;13.10;99.90;;;;;;5010134;28;20060;-75
2021/09/18 04:16:32;;;;;;;0.15;0.15;;;13.00;99.90;;;;;;5010122;28;20550;-75
2021/09/18 04:18:58;;;;;;;0.20;0.20;;;12.80;99.90;;;;;;5014977;28;20116;-75
2021/09/18 04:21:24;;;;;;;0.25;0.25;;;12.60;99.90;;;;;;5013688;28;20057;-75
2021/09/18 04:23:50;;;;;;;0.57;0.57;;;12.50;99.90;;;;;;4997376;28;20022;-75
2021/09/18 04:26:16;;;;;;;0.10;0.10;;;12.50;99.90;;;;;;5014679;28;20497;-74
2021/09/18 04:28:42;;;;;;;0.25;0.25;;;12.50;99.90;;;;;;5013452;28;20382;-74
2021/09/18 04:31:08;;;;;;;0.10;0.10;;;12.70;99.90;;;;;;5013626;28;20569;-75
2021/09/18 04:33:34;;;;;;;0.10;0.10;;;12.80;99.90;;;;;;5013624;28;20026;-74
2021/09/18 04:36:01;;;;;;;0.10;0.10;;;13.00;99.90;;;;;;5014736;28;20056;-75
2021/09/18 04:38:26;;;;;;;0.10;0.10;;;13.00;99.90;;;;;;5014635;28;20394;-75
2021/09/18 04:40:52;;;;;;;0.10;0.10;;;13.10;99.90;;;;;;5014757;28;20022;-75
2021/09/18 04:43:18;;;;;;;0.10;0.10;;;13.30;99.90;;;;;;5013173;28;20030;-74
2021/09/18 04:45:44;;;;;;;0.20;0.20;;;13.30;99.90;;;;;;5013133;28;20022;-75
2021/09/18 04:48:09;;;;;;;0.20;0.20;;;13.50;99.90;;;;;;5014344;28;20026;-75
2021/09/18 04:50:36;;;;;;;0.10;0.10;;;13.50;99.90;;;;;;4996831;28;20060;-75
2021/09/18 04:53:01;;;;;;;0.10;0.10;;;13.40;99.90;;;;;;5013147;28;20034;-75
2021/09/18 04:55:27;;;;;;;0.17;0.17;;;13.40;99.90;;;;;;5014245;28;20032;-75
2021/09/18 04:57:53;;;;;;;0.10;0.10;;;13.20;99.90;;;;;;5012950;28;20025;-75
2021/09/18 05:00:19;;;;;;;0.10;0.10;;;13.20;99.90;;;;;;5013048;28;20030;-75
2021/09/18 05:02:45;;;;;;;0.22;0.22;;;13.30;99.90;;;;;;5012985;28;20030;-75
2021/09/18 05:05:11;;;;;;;0.10;0.10;;;13.30;99.90;;;;;;5013943;28;20446;-75
2021/09/18 05:07:37;;;;;;;0.10;0.10;;;13.20;99.90;;;;;;5012889;28;20026;-74
2021/09/18 05:10:04;;;;;;;0.10;0.10;;;13.30;99.90;;;;;;5014101;28;20028;-74
2021/09/18 05:12:30;;;;;;;0.90;0.90;;;13.30;99.90;;;;;;5014035;28;20426;-74
2021/09/18 05:14:55;;;;;;;0.10;0.10;;;13.20;99.90;;;;;;4996127;28;20109;-75
2021/09/18 05:17:21;;;;;;;0.13;0.13;;;13.10;99.90;;;;;;5012570;28;20022;-74
2021/09/18 05:19:47;;;;;;;0.20;0.20;;;13.20;99.90;;;;;;5013895;28;20064;-75
2021/09/18 05:22:13;;;;;;;0.10;0.10;;;13.30;99.90;;;;;;5012682;28;20121;-75
2021/09/18 05:24:38;;;;;;;0.40;0.40;;;13.30;99.90;;;;;;5013623;28;20080;-75
2021/09/18 05:27:05;;;;;;;0.57;0.57;;;13.10;99.90;;;;;;5013853;28;20100;-75
2021/09/18 05:29:32;;;;;;;0.10;0.10;;;12.80;99.90;;;;;;5013343;28;20497;-75
2021/09/18 05:31:57;;;;;;;0.20;0.20;;;12.60;99.90;;;;;;5012622;28;20157;-75
2021/09/18 05:34:24;;;;;;;0.13;0.13;;;12.60;99.90;;;;;;5013558;28;20072;-75
2021/09/18 05:36:50;;;;;;;0.10;0.10;;;12.70;99.90;;;;;;5013596;28;20030;-75
2021/09/18 05:39:15;;;;;;;0.38;0.38;;;12.70;99.90;;;;;;5013562;28;20021;-74
2021/09/18 05:41:41;;;;;;;0.10;0.10;;;12.60;99.90;;;;;;5012223;28;20022;-74
2021/09/18 05:44:07;;;;;;;0.10;0.10;;;12.60;99.90;;;;;;5012114;28;20251;-75
2021/09/18 05:46:33;;;;;;;0.10;0.10;;;12.50;99.90;;;;;;5012045;28;20060;-75
2021/09/18 05:48:58;;;;;;;0.15;0.15;;;12.60;99.90;;;;;;5012012;28;20018;-75
2021/09/18 05:51:24;;;;;;;0.10;0.10;;;12.70;99.90;;;;;;5013320;28;20034;-75
2021/09/18 05:53:54;;;;;;;0.45;0.45;;;12.80;99.90;;;;;;5013240;28;20022;-75
2021/09/18 05:56:19;;;;;;;0.30;0.30;;;12.90;99.90;;;;;;5012979;28;20501;-75
2021/09/18 05:58:45;;;;;;;0.30;0.28;;;12.90;99.90;;;;;;5013226;28;20018;-74
2021/09/18 06:01:11;;;;;;;0.20;0.20;;;12.80;99.90;;;;;;5013171;28;20092;-75
2021/09/18 06:03:36;;;;;;;0.10;0.10;;;13.10;99.90;;;;;;5011839;28;20057;-75
2021/09/18 06:06:02;;;;;;;0.10;0.10;;;13.20;99.90;;;;;;5012895;28;20037;-75
2021/09/18 06:08:29;;;;;;;0.10;0.10;;;13.10;99.90;;;;;;5011748;28;20045;-75
2021/09/18 06:10:54;;;;;;;0.10;0.10;;;13.20;99.90;;;;;;5012796;28;20493;-75
2021/09/18 06:13:20;;;;;;;0.10;0.10;;;13.20;99.90;;;;;;5011788;28;20026;-75
2021/09/18 06:15:46;;;;;;;0.13;0.13;;;13.50;99.90;;;;;;5012627;28;20025;-74
2021/09/18 06:18:12;;;;;;;0.10;0.10;;;13.60;99.90;;;;;;5012878;28;20033;-74
2021/09/18 06:20:37;;;;;;;0.10;0.10;;;13.60;99.90;;;;;;5011589;28;20034;-75
2021/09/18 06:23:03;;;;;;;0.17;0.17;;;13.80;99.90;;;;;;5011439;28;20564;-74
2021/09/18 06:25:29;;;;;;;0.38;0.38;;;13.80;99.90;;;;;;5011287;28;20478;-75
2021/09/18 06:27:55;;;;;;;0.40;0.40;;;13.80;99.90;;;;;;5013001;28;20029;-77
2021/09/18 06:30:20;;;;;;;0.10;0.10;;;13.90;99.90;;;;;;4994948;28;20556;-74
2021/09/18 06:32:46;;;;;;;0.30;0.30;;;13.90;99.90;;;;;;5012518;28;20112;-75
2021/09/18 06:35:13;;;;;;;0.10;0.10;;;13.90;99.90;;;;;;5012307;28;20062;-74
2021/09/18 06:37:47;;;;;;;0.10;0.10;;;13.80;99.90;;;;;;5011177;28;20026;-74
2021/09/18 06:40:15;;;;;;;0.10;0.10;;;13.70;99.90;;;;;;5010478;28;20040;-74
2021/09/18 06:42:41;;;;;;;1.25;1.15;;;13.80;99.90;;;;;;5012296;28;20083;-74
2021/09/18 06:45:08;;;;;;;0.10;0.10;;;13.90;99.90;;;;;;5012079;28;20025;-74
2021/09/18 06:47:34;;;;;;;0.35;0.32;;;13.90;99.90;;;;;;5010990;28;20411;-74
2021/09/18 06:50:01;;;;;;;0.10;0.10;;;14.10;99.90;;;;;;5017225;28;20052;-74
2021/09/18 06:52:26;;;;;;;0.10;0.10;;;14.10;99.90;;;;;;5022733;28;20034;-75
2021/09/18 06:54:52;;;;;;;0.25;0.25;;;14.20;99.90;;;;;;5012026;28;20026;-74
2021/09/18 06:57:18;;;;;;;0.73;0.73;;;14.30;99.90;;;;;;5010912;28;20034;-74
2021/09/18 06:59:44;;;;;;;0.10;0.10;;;14.30;99.90;;;;;;5010523;28;20107;-74
2021/09/18 07:02:09;;;;;;;0.15;0.15;;;14.40;99.90;;;;;;5024911;28;20029;-75
2021/09/18 07:04:38;;;;;;;0.10;0.10;;;14.40;99.90;;;;;;5030406;28;20021;-75
2021/09/18 07:07:04;;;;;;;0.20;0.20;;;14.40;99.90;;;;;;5031767;28;20013;-76
2021/09/18 07:09:29;;;;;;;0.10;0.10;;;14.40;99.90;;;;;;5030224;28;20043;-74
2021/09/18 07:11:55;;;;;;;0.10;0.10;;;14.40;99.90;;;;;;5031667;28;20033;-75
2021/09/18 07:14:21;;;;;;;0.10;0.10;;;14.50;99.90;;;;;;5031428;28;20105;-75
2021/09/18 07:16:47;;;;;;;0.10;0.10;;;14.70;99.90;;;;;;5013879;28;20095;-75
2021/09/18 07:19:14;;;;;;;0.10;0.10;;;14.80;99.90;;;;;;5030532;28;20029;-75
2021/09/18 07:21:40;;;;;;;0.10;0.10;;;14.90;99.90;;;;;;5031912;28;20110;-75
2021/09/18 07:24:06;;;;;;;0.10;0.10;;;15.10;99.90;;;;;;5019551;28;20065;-75
2021/09/18 07:26:33;;;;;;;0.10;0.10;;;15.20;99.90;;;;;;5010168;28;20022;-75
2021/09/18 07:28:59;;;;;;;0.10;0.10;;;15.30;99.90;;;;;;5010734;28;20057;-75
2021/09/18 07:31:25;;;;;;;0.10;0.10;;;15.40;99.90;;;;;;5011822;28;20429;-75
2021/09/18 07:33:51;;;;;;;0.10;0.10;;;15.50;99.90;;;;;;5010704;28;20034;-75
2021/09/18 07:36:16;;;;;;;0.10;0.10;;;15.50;99.90;;;;;;5011973;28;20100;-74
2021/09/18 07:38:42;;;;;;;0.10;0.10;;;15.60;99.90;;;;;;5011645;28;20026;-74
2021/09/18 07:41:08;;;;;;;0.10;0.10;;;15.70;99.90;;;;;;5011517;28;20164;-74
2021/09/18 07:43:34;;;;;;;0.35;0.35;;;15.60;99.90;;;;;;5010077;28;20083;-74
2021/09/18 07:46:02;;;;;;;0.10;0.10;;;15.60;99.90;;;;;;5009772;28;20479;-74
2021/09/18 07:48:29;;;;;;;0.20;0.20;;;15.70;99.90;;;;;;4991952;28;20397;-74
2021/09/18 07:50:55;;;;;;;0.10;0.10;;;15.80;99.90;;;;;;5010476;28;20030;-74
2021/09/18 07:53:21;;;;;;;0.10;0.10;;;15.80;99.90;;;;;;5014325;28;20554;-74
2021/09/18 07:55:47;;;;;;;0.10;0.10;;;15.80;99.90;;;;;;5014189;28;20033;-74
2021/09/18 07:58:13;;;;;;;0.10;0.10;;;15.90;99.90;;;;;;5015157;28;20022;-74
2021/09/18 08:00:38;;;;;;;0.10;0.10;;;16.00;99.90;;;;;;5013912;28;20394;-74
2021/09/18 08:03:04;;;;;;;0.10;0.10;;;16.00;99.90;;;;;;5013725;28;20030;-74
2021/09/18 08:05:30;;;;;;;0.10;0.10;;;16.00;99.90;;;;;;5014829;28;20026;-75
2021/09/18 08:07:56;;;;;;;0.10;0.10;;;16.10;99.90;;;;;;5013718;28;20114;-74
2021/09/18 08:10:22;;;;;;;0.10;0.10;;;16.10;99.90;;;;;;5013695;28;20088;-74
2021/09/18 08:12:48;;;;;;;0.10;0.10;;;16.20;99.90;;;;;;5013579;28;20029;-74
2021/09/18 08:15:18;;;;;;;1.55;0.65;;;16.30;99.90;;;;;;5014691;28;20050;-74
2021/09/18 08:17:46;;;;;;;0.10;0.10;;;16.30;99.90;;;;;;5014721;28;20084;-74
2021/09/18 08:20:15;;;;;;;0.10;0.10;;;16.30;99.90;;;;;;5014628;28;20379;-74
2021/09/18 08:22:41;;;;;;;0.10;0.10;;;16.40;99.90;;;;;;4997091;28;20037;-74
2021/09/18 08:25:08;;;;;;;0.50;0.50;;;16.60;99.30;;;;;;5013336;28;20370;-74
2021/09/18 08:27:34;;;;;;;0.10;0.10;;;16.70;98.80;;;;;;5014656;28;20175;-74
2021/09/18 08:30:00;;;;;;;0.25;0.25;;;16.70;98.50;;;;;;5014731;28;20477;-74
2021/09/18 08:32:26;;;;;;;0.10;0.10;;;16.80;98.50;;;;;;5014648;28;20064;-74
2021/09/18 08:34:53;;;;;;;0.20;0.20;;;16.70;98.10;;;;;;5012993;28;20022;-74
2021/09/18 08:37:19;;;;;;;0.10;0.10;;;16.80;96.30;;;;;;5013172;28;20478;-74
2021/09/18 08:39:45;;;;;;;0.43;0.40;;;16.60;95.50;;;;;;5014439;28;20092;-74
2021/09/18 08:42:11;;;;;;;0.10;0.10;;;16.70;94.50;;;;;;5013007;28;20097;-74
2021/09/18 08:44:38;;;;;;;0.10;0.10;;;16.90;93.60;;;;;;5014196;28;20025;-74
2021/09/18 08:47:05;;;;;;;0.30;0.30;;;17.20;93.70;;;;;;5013061;28;20022;-74
2021/09/18 08:49:31;;;;;;;0.30;0.30;;;17.60;92.10;;;;;;5014178;28;20049;-74
2021/09/18 08:51:59;;;;;;;0.10;0.10;;;17.90;90.40;;;;;;5012890;28;20033;-74
2021/09/18 08:54:25;;;;;;;0.10;0.10;;;18.20;89.90;;;;;;5013106;28;20040;-74
2021/09/18 08:56:50;;;;;;;0.10;0.10;;;18.30;86.70;;;;;;5014107;28;20034;-74
2021/09/18 08:59:16;;;;;;;0.10;0.10;;;18.70;84.30;;;;;;5012917;28;20099;-74
2021/09/18 09:01:42;;;;;;;0.13;0.13;;;19.10;83.10;;;;;;5013670;28;20118;-73
2021/09/18 09:04:08;;;;;;;0.20;0.20;;;19.00;80.70;;;;;;5021969;28;20017;-74
2021/09/18 09:06:50;;;;;;;0.30;0.30;;;19.20;78.00;;;;;;5016581;28;20022;-74
2021/09/18 09:09:16;;;;;;;0.10;0.10;;;19.50;78.00;;;;;;5012009;28;20026;-74
2021/09/18 09:11:50;;;;;;;0.47;0.40;;;19.90;73.40;;;;;;4996167;28;20033;-74
2021/09/18 09:14:16;;;;;;;0.22;0.22;;;20.30;72.40;;;;;;5012906;28;20029;-74
2021/09/18 09:17:03;;;;;;;0.00;0.00;;;20.60;71.10;;;;;;5013501;28;20091;-74
2021/09/18 09:19:38;;;;;;;0.75;0.52;;;21.00;70.80;;;;;;5013583;28;20025;-74
2021/09/18 09:22:04;;;;;;;2.90;0.75;;;21.00;68.40;;;;;;5012200;28;20041;-74
2021/09/18 09:24:30;;;;;;;0.57;0.32;;;21.00;68.70;;;;;;5012299;28;20389;-74
2021/09/18 09:27:11;;;;;;;2.30;0.98;;;21.00;68.50;;;;;;5011908;28;20029;-74
2021/09/18 09:29:45;;;;;;;0.20;0.20;;;20.90;67.50;;;;;;5013474;28;20022;-74
2021/09/18 09:32:34;;;;;;;0.10;0.10;;;21.20;67.00;;;;;;5013412;28;20148;-74
2021/09/18 09:35:06;;;;;;;0.08;0.08;;;21.70;64.00;;;;;;5013383;28;20034;-74
2021/09/18 09:37:32;;;;;;;0.00;0.00;;;21.60;64.90;;;;;;5013353;28;20025;-76
2021/09/18 09:39:59;;;;;;;0.03;0.03;;;22.20;66.60;;;;;;5013485;28;20397;-74
2021/09/18 09:42:55;;;;;;;0.10;0.10;;;22.90;65.00;;;;;;5012695;28;20072;-74
2021/09/18 09:45:22;;;;;;;0.70;0.28;;;23.20;62.80;;;;;;5010389;28;20030;-74
2021/09/18 09:48:04;;;;;;;0.10;0.10;;;23.00;63.50;;;;;;5011885;28;20030;-74
2021/09/18 09:50:31;;;;;;;0.10;0.10;;;23.10;63.70;;;;;;5013189;28;20057;-74
2021/09/18 09:52:58;;;;;;;1.98;1.65;;;23.20;62.00;;;;;;4995689;28;20033;-74
2021/09/18 09:55:24;;;;;;;0.00;0.00;;;23.50;62.00;;;;;;5011728;28;20079;-74
2021/09/18 09:57:56;;;;;;;0.40;0.40;;;23.90;59.80;;;;;;5012033;28;20033;-74
2021/09/18 10:00:22;;;;;;;0.00;0.00;;;23.70;60.10;;;;;;5013230;28;20474;-74
2021/09/18 10:02:48;;;;;;;0.70;0.70;;;24.00;58.90;;;;;;4995219;28;20037;-74
2021/09/18 10:05:15;;;;;;;0.10;0.10;;;24.30;57.70;;;;;;5012811;28;20390;-74
2021/09/18 10:07:42;;;;;;;1.05;0.65;;;24.30;56.80;;;;;;5012750;28;20021;-74
2021/09/18 10:10:09;;;;;;;0.00;0.00;;;24.50;55.90;;;;;;5013080;28;20022;-74
2021/09/18 10:12:36;;;;;;;0.20;0.20;;;24.50;55.50;;;;;;5011643;28;20446;-74
2021/09/18 10:15:06;;;;;;;1.05;0.63;;;24.70;55.10;;;;;;4995182;28;20033;-74
2021/09/18 10:17:35;;;;;;;0.10;0.10;;;24.90;54.30;;;;;;5011484;28;20120;-74
2021/09/18 10:20:07;;;;;;;0.20;0.20;;;24.70;53.80;;;;;;4995159;28;20397;-74
2021/09/18 10:25:23;;;;;;;0.00;0.00;;;25.70;51.80;;;;;;5011496;28;20022;-74
2021/09/18 10:28:11;;;;;;;0.40;0.40;;;26.00;49.10;;;;;;5012406;28;20018;-74
2021/09/18 10:31:29;;;;;;;0.15;0.15;;;26.20;47.80;;;;;;5011609;28;20510;-74
2021/09/18 10:33:56;;;;;;;0.35;0.10;;;26.10;47.30;;;;;;5014876;28;20036;-74
2021/09/18 10:36:27;;;;;;;0.00;0.00;;;26.00;47.00;;;;;;5011170;28;20034;-74
2021/09/18 10:39:09;;;;;;;;;;;25.60;48.50;;;;;;5011582;28;20109;-74
2021/09/18 10:41:52;;;;;;;1.13;0.70;;;24.70;47.80;;;;;;5010998;28;19905;-74
2021/09/18 10:44:22;;;;;;;0.20;0.20;;;24.50;50.50;;;;;;5011483;28;20560;-74
2021/09/18 10:46:56;;;;;;;0.00;0.00;;;24.60;50.20;;;;;;5010883;28;20124;-74
2021/09/18 10:49:37;;;;;;;0.00;0.00;;;25.20;50.00;;;;;;5010918;28;20053;-74
2021/09/18 10:52:23;;;;;;;0.85;0.70;;;25.50;48.30;;;;;;5012312;28;20446;-74
2021/09/18 10:55:01;;;;;;;0.00;0.00;;;25.00;47.80;;;;;;4994430;28;20401;-74
2021/09/18 10:57:45;;;;;;;0.10;0.10;;;25.00;52.80;;;;;;5012117;28;20037;-74
2021/09/18 11:00:20;;;;;;;0.25;0.25;;;25.80;50.40;;;;;;5011169;28;20049;-74
2021/09/18 11:02:49;;;;;;;0.15;0.15;;;25.70;50.60;;;;;;4994466;28;20033;-74
2021/09/18 11:05:20;;;;;;;0.00;0.00;;;25.80;50.60;;;;;;4994359;28;20018;-74
2021/09/18 11:07:51;;;;;;;0.10;0.10;;;26.50;49.20;;;;;;5010589;28;20026;-74
2021/09/18 11:10:20;;;;;;;0.57;0.37;;;26.20;48.50;;;;;;5012196;28;20030;-74
2021/09/18 11:13:06;;;;;;;0.10;0.10;;;26.30;46.60;;;;;;4994494;28;20635;-74
2021/09/18 11:15:47;;;;;;;0.10;0.10;;;26.10;47.60;;;;;;5006837;28;20104;-74
2021/09/18 11:18:28;;;;;;;0.43;0.10;;;26.70;47.90;;;;;;5011896;28;20026;-74
2021/09/18 11:21:16;;;;;;;0.00;0.00;;;27.00;47.80;;;;;;5012070;28;20026;-74
2021/09/18 11:23:42;;;;;;;0.10;0.10;;;25.70;47.90;;;;;;5012060;28;20030;-74
2021/09/18 11:26:28;;;;;;;0.00;0.00;;;24.70;50.60;;;;;;5012517;28;20032;-74
2021/09/18 11:28:54;;;;;;;0.00;0.00;;;24.20;51.10;;;;;;5014634;28;20025;-74
2021/09/18 11:31:19;;;;;;;0.30;0.30;;;23.70;52.20;;;;;;5015857;28;20028;-74
2021/09/18 11:33:49;;;;;;;0.00;0.00;;;23.50;52.60;;;;;;5014497;28;20494;-74
2021/09/18 11:36:18;;;;;;;0.00;0.00;;;23.10;53.60;;;;;;4998031;28;20080;-74
2021/09/18 11:38:44;;;;;;;0.20;0.20;;;22.70;54.70;;;;;;5015790;28;20055;-74
2021/09/18 11:41:14;;;;;;;0.00;0.00;;;22.90;54.60;;;;;;5014180;28;20486;-74
2021/09/18 11:43:42;;;;;;;0.20;0.20;;;23.90;53.00;;;;;;5015513;28;20060;-74
2021/09/18 11:46:10;;;;;;;0.30;0.30;;;24.40;50.50;;;;;;5014316;28;20038;-74
2021/09/18 11:48:36;;;;;;;0.00;0.00;;;25.00;49.80;;;;;;5015449;28;20034;-74
2021/09/18 11:51:11;;;;;;;0.30;0.30;;;25.60;48.40;;;;;;5043386;22;20667;-92
2021/09/18 11:53:37;;;;;;;0.00;0.00;;;25.50;47.40;;;;;;4980337;28;20031;-92
2021/09/18 11:56:03;;;;;;;0.00;0.00;;;25.80;47.40;;;;;;4980976;28;20038;-92
2021/09/18 11:58:36;;;;;;;0.30;0.30;;;25.90;47.70;;;;;;4981909;28;20027;-92
2021/09/18 12:01:10;;;;;;;0.20;0.20;;;26.40;47.10;;;;;;4984414;28;20074;-92
2021/09/18 12:03:41;;;;;;;0.00;0.00;;;26.50;46.70;;;;;;4981684;28;20030;-92
2021/09/18 12:06:11;;;;;;;0.00;0.00;;;26.70;46.00;;;;;;4980447;28;20030;-92
2021/09/18 12:08:40;;;;;;;0.20;0.20;;;26.70;46.10;;;;;;4980841;28;20027;-91
2021/09/18 12:11:08;;;;;;;0.43;0.43;;;26.40;46.00;;;;;;4981560;28;20266;-92
2021/09/18 12:13:42;;;;;;;0.00;0.00;;;26.50;46.90;;;;;;4980473;28;20068;-92
2021/09/18 12:16:18;;;;;;;0.10;0.10;;;25.90;46.20;;;;;;4980407;28;20048;-92
2021/09/18 12:18:50;;;;;;;0.10;0.10;;;25.90;47.20;;;;;;4979858;28;20026;-92
2021/09/18 12:21:24;;;;;;;0.08;0.08;;;25.70;47.60;;;;;;4980100;28;20026;-92
2021/09/18 12:23:59;;;;;;;0.22;0.22;;;25.00;48.30;;;;;;4979594;28;20034;-92
2021/09/18 12:26:28;;;;;;;2.45;0.55;;;25.10;49.50;;;;;;4978850;28;20169;-92
2021/09/18 12:29:05;;;;;;;0.10;0.10;;;25.30;49.10;;;;;;4979988;28;20018;-91
2021/09/18 12:31:31;;;;;;;0.20;0.20;;;25.30;48.30;;;;;;4979517;28;20542;-92
2021/09/18 12:34:18;;;;;;;0.17;0.17;;;25.40;48.40;;;;;;4979509;28;20046;-92
2021/09/18 12:36:46;;;;;;;0.00;0.00;;;25.40;48.80;;;;;;4979437;28;20364;-91
2021/09/18 12:39:13;;;;;;;0.00;0.00;;;25.30;48.00;;;;;;4977650;28;20026;-91
2021/09/18 12:41:42;;;;;;;0.15;0.15;;;25.30;48.20;;;;;;4978983;28;20022;-91
2021/09/18 12:44:15;;;;;;;0.00;0.00;;;25.20;48.40;;;;;;4979351;28;20069;-91
2021/09/18 12:46:47;;;;;;;0.10;0.10;;;25.20;47.40;;;;;;4979312;28;20030;-91
2021/09/18 12:49:14;;;;;;;0.00;0.00;;;25.00;48.00;;;;;;4978351;28;20503;-91
2021/09/18 12:51:43;;;;;;;0.00;0.00;;;24.60;48.30;;;;;;4978429;28;20045;-91
2021/09/18 12:54:17;;;;;;;0.00;0.00;;;24.10;49.30;;;;;;4978605;28;20029;-91